.
WxDataArchive / Data Records for 2015-11-19
2015-11-18 November 2015 2015-11-20

Data Records for Thursday, 19 November 2015

Time	Temp	Chill	HIndex	Humid	Dewpt	 Wind 	HiWind	WindDir	Rain 	Barom
-----	----	-----	------	-----	-----	------	------	-------	-----	-----
00:00	55.0	55.0	55.0	70	45.4	0	1	248	0.00	29.681 
00:05	54.7	54.7	54.7	71	45.5	1	3	248	0.00	29.681 
00:10	54.7	54.7	54.7	72	45.9	0	4	248	0.00	29.681 
00:15	54.5	54.5	54.5	72	45.7	1	3	248	0.00	29.689 
00:20	54.4	54.4	54.4	72	45.6	0	4	248	0.00	29.689 
00:25	54.4	54.4	54.4	72	45.6	1	4	248	0.00	29.689 
00:30	54.2	54.2	54.2	72	45.4	0	3	248	0.00	29.697 
00:35	54.1	54.1	54.1	72	45.3	0	3	248	0.00	29.697 
00:40	53.9	53.9	53.9	73	45.4	0	2	248	0.00	29.697 
00:45	53.8	53.8	53.8	73	45.3	0	1	248	0.00	29.699 
00:50	53.6	53.6	53.6	73	45.2	0	3	248	0.00	29.699 
00:55	53.6	53.6	53.6	74	45.5	0	2	248	0.00	29.699 
01:00	53.6	53.6	53.6	74	45.5	0	2	248	0.00	29.703 
01:05	53.5	53.5	53.5	74	45.4	0	1	248	0.00	29.703 
01:10	53.3	53.3	53.3	74	45.2	0	3	248	0.00	29.703 
01:15	53.3	53.3	53.3	75	45.6	0	4	248	0.00	29.712 
01:20	53.3	53.3	53.3	75	45.6	1	3	248	0.00	29.712 
01:25	53.3	53.3	53.3	75	45.6	0	1	248	0.00	29.712 
01:30	53.3	53.3	53.3	76	45.9	0	4	248	0.00	29.713 
01:35	53.5	53.5	53.5	75	45.8	1	7	68	0.00	29.713 
01:40	53.3	53.3	53.3	75	45.6	1	4	68	0.00	29.713 
01:45	53.3	53.3	53.3	76	45.9	1	4	248	0.00	29.714 
01:50	53.2	53.2	53.2	76	45.8	0	3	270	0.00	29.714 
01:55	53.2	53.2	53.2	76	45.8	1	4	248	0.00	29.714 
02:00	53.1	53.1	53.1	77	46.1	0	3	248	0.00	29.714 
02:05	53.1	53.1	53.1	77	46.1	0	1	248	0.00	29.714 
02:10	52.9	52.9	52.9	77	45.9	0	2	248	0.00	29.714 
02:15	52.8	52.8	52.8	77	45.8	1	4	248	0.00	29.711 
02:20	52.8	52.8	52.8	78	46.1	0	2	248	0.00	29.711 
02:25	52.6	52.6	52.6	78	45.9	0	3	248	0.00	29.711 
02:30	52.6	52.6	52.6	78	45.9	0	1	248	0.00	29.719 
02:35	52.5	52.5	52.5	79	46.2	0	2	248	0.00	29.719 
02:40	52.3	52.3	52.3	79	46.0	0	4	248	0.00	29.719 
02:45	52.2	52.2	52.2	79	45.9	0	2	248	0.00	29.729 
02:50	52.0	52.0	52.0	80	46.0	0	1	248	0.00	29.729 
02:55	51.9	51.9	51.9	80	45.9	0	2	248	0.00	29.729 
03:00	51.7	51.7	51.7	80	45.7	0	3	248	0.00	29.730 
03:05	51.6	51.6	51.6	81	46.0	0	1	248	0.00	29.730 
03:10	51.4	51.4	51.4	81	45.8	0	1	248	0.00	29.730 
03:15	51.3	51.3	51.3	81	45.7	0	1	248	0.00	29.735 
03:20	51.3	51.3	51.3	82	46.0	0	3	248	0.00	29.735 
03:25	51.4	51.4	51.4	81	45.8	0	3	248	0.00	29.735 
03:30	51.6	51.6	51.6	81	46.0	1	4	248	0.00	29.740 
03:35	51.7	51.7	51.7	80	45.7	1	2	248	0.00	29.740 
03:40	51.7	51.7	51.7	78	45.1	0	3	248	0.00	29.740 
03:45	51.6	51.6	51.6	75	43.9	1	4	248	0.00	29.741 
03:50	51.4	51.4	51.4	74	43.4	0	1	248	0.00	29.741 
03:55	51.4	51.4	51.4	74	43.4	0	3	248	0.00	29.741 
04:00	51.3	51.3	51.3	72	42.6	1	3	248	0.00	29.747 
04:05	51.1	51.1	51.1	70	41.7	2	5	248	0.00	29.747 
04:10	51.0	51.0	51.0	70	41.6	1	4	248	0.00	29.747 
04:15	50.8	50.8	50.8	70	41.4	1	3	248	0.00	29.757 
04:20	50.7	50.7	50.7	70	41.3	1	4	248	0.00	29.757 
04:25	50.4	50.4	50.4	70	41.0	1	4	248	0.00	29.757 
04:30	50.1	50.1	50.1	70	40.7	0	2	248	0.00	29.759 
04:35	49.6	49.6	49.6	69	39.9	1	4	248	0.00	29.759 
04:40	49.4	49.4	49.4	69	39.7	0	2	248	0.00	29.759 
04:45	48.9	48.9	48.9	69	39.2	0	3	248	0.00	29.764 
04:50	48.6	48.6	48.6	69	38.9	0	3	248	0.00	29.764 
04:55	48.5	48.5	48.5	69	38.8	0	4	248	0.00	29.764 
05:00	48.3	48.3	48.3	69	38.6	0	2	248	0.00	29.765 
05:05	48.0	48.0	48.0	70	38.7	0	2	248	0.00	29.765 
05:10	47.7	47.7	47.7	71	38.8	0	1	248	0.00	29.765 
05:15	47.6	47.6	47.6	71	38.7	0	1	248	0.00	29.769 
05:20	47.3	47.3	47.3	71	38.4	0	3	248	0.00	29.769 
05:25	47.3	47.3	47.3	71	38.4	0	4	0	0.00	29.769 
05:30	47.1	47.1	47.1	71	38.2	0	2	0	0.00	29.777 
05:35	47.0	47.0	47.0	71	38.1	1	3	315	0.00	29.777 
05:40	46.8	46.8	46.8	71	37.9	0	2	292	0.00	29.777 
05:45	46.7	46.7	46.7	72	38.2	0	2	292	0.00	29.777 
05:50	46.5	46.5	46.5	72	38.0	0	1	292	0.00	29.777 
05:55	46.4	46.4	46.4	72	37.9	0	2	292	0.00	29.777 
06:00	46.2	46.2	46.2	73	38.0	0	2	292	0.00	29.778 
06:05	46.0	46.0	46.0	73	37.8	0	1	292	0.00	29.778 
06:10	45.7	45.7	45.7	73	37.5	0	1	292	0.00	29.778 
06:15	45.4	45.4	45.4	74	37.6	0	1	292	0.00	29.780 
06:20	45.2	45.2	45.2	74	37.4	0	1	292	0.00	29.780 
06:25	45.1	45.1	45.1	75	37.7	0	2	292	0.00	29.780 
06:30	44.9	44.9	44.9	76	37.8	0	1	292	0.00	29.786 
06:35	44.6	44.6	44.6	76	37.5	0	2	292	0.00	29.786 
06:40	44.6	44.6	44.6	77	37.8	0	1	292	0.00	29.786 
06:45	44.5	44.5	44.5	77	37.7	0	1	292	0.00	29.788 
06:50	44.5	44.5	44.5	77	37.7	0	2	292	0.00	29.788 
06:55	44.5	44.5	44.5	78	38.1	0	1	292	0.00	29.788 
07:00	44.3	44.3	44.3	78	37.9	0	2	292	0.00	29.793 
07:05	44.5	44.5	44.5	79	38.4	0	1	292	0.00	29.793 
07:10	44.5	44.5	44.5	79	38.4	0	2	292	0.00	29.793 
07:15	44.6	44.6	44.6	80	38.8	0	3	315	0.00	29.797 
07:20	44.8	44.8	44.8	80	39.0	0	2	292	0.00	29.797 
07:25	45.1	45.1	45.1	81	39.6	0	2	292	0.00	29.797 
07:30	45.2	45.2	45.2	81	39.7	0	2	292	0.00	29.799 
07:35	45.5	45.5	45.5	81	40.0	0	2	292	0.00	29.799 
07:40	45.7	45.7	45.7	81	40.2	0	2	292	0.00	29.799 
07:45	45.8	45.8	45.8	81	40.3	0	2	292	0.00	29.802 
07:50	46.0	46.0	46.0	81	40.5	0	3	292	0.00	29.802 
07:55	46.1	46.1	46.1	81	40.6	0	3	225	0.00	29.802 
08:00	46.5	46.5	46.5	81	41.0	1	5	270	0.00	29.806 
08:05	46.8	46.8	46.8	80	41.0	1	3	270	0.00	29.806 
08:10	47.3	47.3	47.3	79	41.1	1	6	248	0.00	29.806 
08:15	47.6	47.6	47.6	78	41.1	1	4	248	0.00	29.812 
08:20	47.7	47.7	47.7	78	41.2	0	3	292	0.00	29.812 
08:25	47.9	47.9	47.9	78	41.4	1	4	270	0.00	29.812 
08:30	47.7	47.7	47.7	77	40.8	0	5	248	0.00	29.812 
08:35	47.7	47.7	47.7	78	41.2	0	3	270	0.00	29.812 
08:40	47.7	47.7	47.7	78	41.2	1	4	248	0.00	29.812 
08:45	47.9	47.9	47.9	78	41.4	1	3	248	0.00	29.820 
08:50	48.0	48.0	48.0	77	41.1	1	6	248	0.00	29.820 
08:55	48.2	48.2	48.2	77	41.3	1	4	248	0.00	29.820 
09:00	48.3	48.3	48.3	77	41.4	1	4	248	0.00	29.815 
09:05	48.5	48.5	48.5	76	41.3	2	6	248	0.00	29.815 
09:10	48.6	48.6	48.6	75	41.0	2	5	248	0.00	29.815 
09:15	48.8	48.8	48.8	74	40.9	1	5	248	0.00	29.825 
09:20	48.9	48.9	48.9	74	41.0	1	6	248	0.00	29.825 
09:25	49.1	49.1	49.1	74	41.2	1	4	248	0.00	29.825 
09:30	48.9	48.9	48.9	73	40.6	3	7	248	0.00	29.831 
09:35	48.8	48.8	48.8	73	40.5	2	9	248	0.00	29.831 
09:40	48.8	48.8	48.8	73	40.5	2	5	248	0.00	29.831 
09:45	48.8	48.8	48.8	73	40.5	2	6	248	0.00	29.836 
09:50	48.6	48.6	48.6	72	40.0	2	5	248	0.00	29.836 
09:55	48.6	48.6	48.6	72	40.0	2	6	248	0.00	29.836 
10:00	48.8	48.8	48.8	73	40.5	2	4	248	0.00	29.844 
10:05	48.9	48.9	48.9	71	39.9	2	6	248	0.00	29.844 
10:10	48.9	48.9	48.9	71	39.9	1	4	248	0.00	29.844 
10:15	48.9	48.9	48.9	72	40.3	2	5	248	0.00	29.847 
10:20	49.1	49.1	49.1	70	39.7	2	5	248	0.00	29.847 
10:25	49.2	49.2	49.2	69	39.5	3	10	248	0.00	29.847 
10:30	48.9	48.9	48.9	70	39.6	3	12	248	0.00	29.859 
10:35	48.8	48.8	48.8	70	39.5	3	10	248	0.00	29.859 
10:40	48.5	48.5	48.5	70	39.2	3	10	248	0.00	29.859 
10:45	48.2	46.8	48.2	70	38.9	4	12	248	0.00	29.869 
10:50	47.9	47.9	47.9	70	38.6	3	11	248	0.00	29.869 
10:55	47.9	47.9	47.9	70	38.6	3	8	248	0.00	29.869 
11:00	47.9	47.9	47.9	70	38.6	3	7	270	0.00	29.875 
11:05	48.0	48.0	48.0	70	38.7	3	7	248	0.00	29.875 
11:10	48.0	48.0	48.0	69	38.3	3	12	248	0.00	29.875 
11:15	48.2	48.2	48.2	68	38.1	3	10	248	0.00	29.886 
11:20	48.0	45.9	48.0	65	36.8	5	12	248	0.00	29.886 
11:25	47.7	47.7	47.7	65	36.5	3	9	248	0.00	29.886 
11:30	47.7	46.2	47.7	65	36.5	4	10	248	0.00	29.893 
11:35	47.7	47.7	47.7	64	36.1	3	9	248	0.00	29.893 
11:40	47.9	47.9	47.9	61	35.1	3	9	248	0.00	29.893 
11:45	48.3	46.9	48.3	55	32.9	4	13	248	0.00	29.894 
11:50	48.8	48.8	48.8	54	32.9	3	9	248	0.00	29.894 
11:55	49.1	47.8	49.1	53	32.7	4	13	248	0.00	29.894 
12:00	49.2	47.9	49.2	54	33.3	4	10	248	0.00	29.893 
12:05	49.2	47.9	49.2	54	33.3	4	9	248	0.00	29.893 
12:10	49.4	49.4	49.4	54	33.5	3	7	248	0.00	29.893 
12:15	49.5	49.5	49.5	54	33.6	3	10	248	0.00	29.902 
12:20	49.6	49.6	49.6	53	33.2	3	9	248	0.00	29.902 
12:25	49.2	47.3	49.2	51	31.9	5	11	248	0.00	29.902 
12:30	48.9	48.9	48.9	53	32.5	3	11	270	0.00	29.906 
12:35	49.1	47.8	49.1	54	33.2	4	13	248	0.00	29.906 
12:40	48.8	46.8	48.8	53	32.4	5	14	248	0.00	29.906 
12:45	48.9	48.9	48.9	53	32.5	3	7	248	0.00	29.911 
12:50	49.1	49.1	49.1	52	32.2	3	7	248	0.00	29.911 
12:55	49.1	47.8	49.1	51	31.8	4	11	270	0.00	29.911 
13:00	48.9	48.9	48.9	53	32.5	3	7	248	0.00	29.914 
13:05	48.9	47.6	48.9	50	31.1	4	11	248	0.00	29.914 
13:10	48.9	48.9	48.9	51	31.6	2	10	248	0.00	29.914 
13:15	48.9	48.9	48.9	52	32.1	2	7	248	0.00	29.919 
13:20	49.2	49.2	49.2	50	31.4	2	7	248	0.00	29.919 
13:25	49.4	49.4	49.4	48	30.5	3	11	248	0.00	29.919 
13:30	49.5	49.5	49.5	49	31.1	2	6	248	0.00	29.926 
13:35	49.6	49.6	49.6	48	30.7	3	7	270	0.00	29.926 
13:40	49.8	49.8	49.8	49	31.4	2	7	248	0.00	29.926 
13:45	49.5	47.6	49.5	46	29.6	5	12	248	0.00	29.926 
13:50	49.1	49.1	49.1	43	27.6	3	9	248	0.00	29.926 
13:55	49.2	49.2	49.2	43	27.7	3	8	248	0.00	29.926 
14:00	49.4	49.4	49.4	42	27.3	3	9	248	0.00	29.926 
14:05	49.1	49.1	49.1	39	25.2	3	13	248	0.00	29.926 
14:10	48.9	48.9	48.9	38	24.4	3	10	248	0.00	29.926 
14:15	49.1	49.1	49.1	39	25.2	3	12	248	0.00	29.929 
14:20	48.9	48.9	48.9	40	25.7	3	10	270	0.00	29.929 
14:25	48.9	47.6	48.9	36	23.1	4	7	248	0.00	29.929 
14:30	48.8	47.5	48.8	36	23.0	4	7	270	0.00	29.930 
14:35	48.8	48.8	48.8	37	23.7	3	6	270	0.00	29.930 
14:40	48.9	48.9	48.9	39	25.0	2	6	248	0.00	29.930 
14:45	48.9	48.9	48.9	38	24.4	3	9	248	0.00	29.930 
14:50	48.9	48.9	48.9	35	22.5	3	8	248	0.00	29.930 
14:55	48.6	47.3	48.6	35	22.2	4	10	248	0.00	29.930 
15:00	48.3	46.9	48.3	35	21.9	4	9	248	0.00	29.940 
15:05	48.5	48.5	48.5	37	23.4	3	11	248	0.00	29.940 
15:10	48.6	47.3	48.6	37	23.5	4	7	270	0.00	29.940 
15:15	48.6	48.6	48.6	39	24.8	3	6	248	0.00	29.945 
15:20	48.6	48.6	48.6	40	25.4	2	8	292	0.00	29.945 
15:25	48.6	48.6	48.6	40	25.4	2	7	270	0.00	29.945 
15:30	48.6	48.6	48.6	43	27.1	1	4	248	0.00	29.945 
15:35	48.8	48.8	48.8	43	27.3	2	6	248	0.00	29.945 
15:40	48.8	47.5	48.8	43	27.3	4	10	248	0.00	29.945 
15:45	48.6	47.3	48.6	38	24.2	4	10	270	0.00	29.957 
15:50	48.3	46.9	48.3	35	21.9	4	9	270	0.00	29.957 
15:55	47.9	46.4	47.9	37	22.9	4	10	270	0.00	29.957 
16:00	47.6	47.6	47.6	39	23.9	3	6	248	0.00	29.966 
16:05	47.4	47.4	47.4	41	24.9	3	9	248	0.00	29.966 
16:10	47.4	45.9	47.4	41	24.9	4	12	248	0.00	29.966 
16:15	47.1	47.1	47.1	35	20.9	3	10	248	0.00	29.978 
16:20	46.8	46.8	46.8	33	19.2	3	9	270	0.00	29.978 
16:25	46.7	46.7	46.7	33	19.1	3	10	248	0.00	29.978 
16:30	46.4	46.4	46.4	35	20.3	3	7	248	0.00	29.980 
16:35	46.2	46.2	46.2	36	20.7	2	6	270	0.00	29.980 
16:40	46.1	46.1	46.1	36	20.6	2	7	248	0.00	29.980 
16:45	46.0	44.2	46.0	35	19.9	4	13	248	0.00	29.986 
16:50	45.7	43.9	45.7	32	17.6	4	12	270	0.00	29.986 
16:55	45.4	43.6	45.4	31	16.6	4	9	248	0.00	29.986 
17:00	45.1	45.1	45.1	32	17.0	3	12	270	0.00	30.000 
17:05	44.8	42.9	44.8	33	17.5	4	9	270	0.00	30.000 
17:10	44.3	42.3	44.3	34	17.7	4	7	270	0.00	30.000 
17:15	44.1	44.1	44.1	35	18.2	2	10	248	0.00	30.016 
17:20	43.9	41.8	43.9	35	18.0	4	12	248	0.00	30.016 
17:25	43.8	43.8	43.8	35	18.0	3	7	248	0.00	30.016 
17:30	43.6	41.5	43.6	34	17.1	4	11	270	0.00	30.019 
17:35	43.5	43.5	43.5	35	17.7	3	7	270	0.00	30.019 
17:40	43.3	43.3	43.3	36	18.2	3	7	270	0.00	30.019 
17:45	43.1	43.1	43.1	37	18.6	3	7	270	0.00	30.030 
17:50	42.9	42.9	42.9	39	19.7	2	5	248	0.00	30.030 
17:55	42.8	42.8	42.8	39	19.6	3	6	248	0.00	30.030 
18:00	42.6	42.6	42.6	39	19.4	2	6	248	0.00	30.039 
18:05	42.6	42.6	42.6	38	18.8	3	6	248	0.00	30.039 
18:10	42.5	42.5	42.5	38	18.7	3	9	270	0.00	30.039 
18:15	42.3	42.3	42.3	38	18.5	2	7	270	0.00	30.050 
18:20	42.2	42.2	42.2	39	19.0	2	5	270	0.00	30.050 
18:25	42.1	42.1	42.1	39	18.9	1	5	292	0.00	30.050 
18:30	41.9	41.9	41.9	39	18.8	1	3	248	0.00	30.056 
18:35	41.8	41.8	41.8	39	18.7	1	3	248	0.00	30.056 
18:40	41.6	41.6	41.6	40	19.1	1	3	248	0.00	30.056 
18:45	41.3	41.3	41.3	41	19.4	0	3	248	0.00	30.064 
18:50	41.2	41.2	41.2	42	19.9	0	2	248	0.00	30.064 
18:55	41.1	41.1	41.1	42	19.8	1	4	248	0.00	30.064 
19:00	41.1	41.1	41.1	43	20.3	0	2	248	0.00	30.069 
19:05	40.9	40.9	40.9	43	20.1	0	3	248	0.00	30.069 
19:10	40.9	40.9	40.9	43	20.1	1	4	248	0.00	30.069 
19:15	40.9	40.9	40.9	43	20.1	1	4	248	0.00	30.074 
19:20	40.8	40.8	40.8	43	20.1	1	6	248	0.00	30.074 
19:25	40.8	40.8	40.8	43	20.1	1	4	248	0.00	30.074 
19:30	40.8	40.8	40.8	44	20.6	1	5	248	0.00	30.080 
19:35	40.6	40.6	40.6	44	20.4	1	4	248	0.00	30.080 
19:40	40.5	40.5	40.5	44	20.3	1	5	248	0.00	30.080 
19:45	40.5	40.5	40.5	44	20.3	1	5	248	0.00	30.081 
19:50	40.5	40.5	40.5	45	20.8	1	2	248	0.00	30.081 
19:55	40.3	40.3	40.3	45	20.7	1	5	248	0.00	30.081 
20:00	40.3	40.3	40.3	46	21.2	1	4	248	0.00	30.085 
20:05	40.3	40.3	40.3	46	21.2	1	3	248	0.00	30.085 
20:10	40.2	40.2	40.2	46	21.1	1	3	248	0.00	30.085 
20:15	40.1	40.1	40.1	46	21.0	1	3	248	0.00	30.092 
20:20	40.1	40.1	40.1	45	20.5	1	5	248	0.00	30.092 
20:25	40.1	40.1	40.1	46	21.0	1	4	248	0.00	30.092 
20:30	39.9	39.9	39.9	46	20.8	1	4	248	0.00	30.097 
20:35	39.8	39.8	39.8	46	20.7	0	4	248	0.00	30.097 
20:40	39.6	39.6	39.6	46	20.5	1	6	225	0.00	30.097 
20:45	39.5	39.5	39.5	47	21.0	0	3	225	0.00	30.098 
20:50	39.3	39.3	39.3	47	20.8	1	4	270	0.00	30.098 
20:55	39.3	39.3	39.3	47	20.8	0	2	270	0.00	30.098 
21:00	39.2	39.2	39.2	47	20.7	1	4	270	0.00	30.103 
21:05	39.1	39.1	39.1	47	20.6	1	4	270	0.00	30.103 
21:10	38.9	38.9	38.9	46	19.9	1	4	270	0.00	30.103 
21:15	38.9	38.9	38.9	46	19.9	1	4	248	0.00	30.102 
21:20	38.8	38.8	38.8	46	19.8	1	5	248	0.00	30.102 
21:25	38.8	38.8	38.8	46	19.8	1	5	248	0.00	30.102 
21:30	38.8	38.8	38.8	45	19.3	1	5	248	0.00	30.109 
21:35	38.8	38.8	38.8	46	19.8	1	4	248	0.00	30.109 
21:40	38.6	38.6	38.6	46	19.6	0	2	248	0.00	30.109 
21:45	38.5	38.5	38.5	45	19.0	1	3	248	0.00	30.113 
21:50	38.5	38.5	38.5	45	19.0	1	6	270	0.00	30.113 
21:55	38.5	38.5	38.5	46	19.5	1	3	248	0.00	30.113 
22:00	38.3	38.3	38.3	46	19.4	1	4	225	0.00	30.118 
22:05	38.3	38.3	38.3	46	19.4	1	4	248	0.00	30.118 
22:10	38.2	38.2	38.2	46	19.3	1	5	248	0.00	30.118 
22:15	38.0	38.0	38.0	46	19.1	1	3	248	0.00	30.127 
22:20	38.0	38.0	38.0	46	19.1	1	6	248	0.00	30.127 
22:25	37.9	37.9	37.9	46	19.0	1	3	248	0.00	30.127 
22:30	37.9	37.9	37.9	46	19.0	1	4	248	0.00	30.122 
22:35	37.9	37.9	37.9	46	19.0	1	4	248	0.00	30.122 
22:40	37.9	37.9	37.9	46	19.0	1	4	248	0.00	30.122 
22:45	37.6	37.6	37.6	47	19.2	0	2	248	0.00	30.125 
22:50	37.5	37.5	37.5	46	18.6	0	2	248	0.00	30.125 
22:55	37.3	37.3	37.3	47	18.9	0	3	248	0.00	30.125 
23:00	37.3	37.3	37.3	47	18.9	2	5	248	0.00	30.129 
23:05	37.3	37.3	37.3	46	18.4	1	4	248	0.00	30.129 
23:10	37.3	37.3	37.3	46	18.4	1	5	248	0.00	30.129 
23:15	37.3	37.3	37.3	46	18.4	1	4	248	0.00	30.131 
23:20	37.2	37.2	37.2	46	18.3	1	4	248	0.00	30.131 
23:25	37.2	37.2	37.2	46	18.3	1	3	248	0.00	30.131 
23:30	37.2	37.2	37.2	46	18.3	1	4	248	0.00	30.131 
23:35	37.2	37.2	37.2	46	18.3	1	4	248	0.00	30.131 
23:40	37.2	37.2	37.2	45	17.8	1	4	248	0.00	30.131 
23:45	37.2	37.2	37.2	46	18.3	1	4	248	0.00	30.133 
23:50	37.2	37.2	37.2	46	18.3	1	3	248	0.00	30.133 
23:55	37.0	37.0	37.0	46	18.2	1	4	248	0.00	30.133 

CoCoRaHS
IN-AL-39
A2 Web Hosting
Creative Commons License
GoDaddy
search engine by freefind advanced

loaded 2018-11-15 13:37:23 • last modified 2010-11-18 10:43:29
Privacy PolicyDisclaimer
• wx.awcolley.com is powered by PmWiki v.2002016 •
• all content (unless otherwise noted) © 2018 A W Colley